sensor_id;sensor_type;location;lat;lon;timestamp;P1;durP1;ratioP1;P2;durP2;ratioP2
31482;SDS011;18103;52.246;8.052;2023-04-25T00:00:56;5.20;;;2.00;;
31482;SDS011;18103;52.246;8.052;2023-04-25T00:03:21;12.43;;;2.43;;
31482;SDS011;18103;52.246;8.052;2023-04-25T00:05:47;12.57;;;3.70;;
31482;SDS011;18103;52.246;8.052;2023-04-25T00:08:12;11.13;;;2.67;;
31482;SDS011;18103;52.246;8.052;2023-04-25T00:10:38;6.20;;;2.47;;
31482;SDS011;18103;52.246;8.052;2023-04-25T00:13:06;7.10;;;3.03;;
31482;SDS011;18103;52.246;8.052;2023-04-25T00:15:33;7.93;;;2.20;;
31482;SDS011;18103;52.246;8.052;2023-04-25T00:17:59;10.07;;;3.37;;
31482;SDS011;18103;52.246;8.052;2023-04-25T00:20:24;7.30;;;2.67;;
31482;SDS011;18103;52.246;8.052;2023-04-25T00:22:50;9.37;;;2.93;;
31482;SDS011;18103;52.246;8.052;2023-04-25T00:25:17;10.47;;;2.83;;
31482;SDS011;18103;52.246;8.052;2023-04-25T00:27:45;4.10;;;2.60;;
31482;SDS011;18103;52.246;8.052;2023-04-25T00:30:10;7.60;;;2.10;;
31482;SDS011;18103;52.246;8.052;2023-04-25T00:32:36;5.40;;;2.30;;
31482;SDS011;18103;52.246;8.052;2023-04-25T00:35:02;11.43;;;2.53;;
31482;SDS011;18103;52.246;8.052;2023-04-25T00:37:28;6.23;;;2.43;;
31482;SDS011;18103;52.246;8.052;2023-04-25T00:39:57;5.23;;;2.70;;
31482;SDS011;18103;52.246;8.052;2023-04-25T00:42:23;8.60;;;2.33;;
31482;SDS011;18103;52.246;8.052;2023-04-25T00:44:54;5.43;;;2.10;;
31482;SDS011;18103;52.246;8.052;2023-04-25T00:47:20;3.43;;;1.80;;
31482;SDS011;18103;52.246;8.052;2023-04-25T00:49:47;4.43;;;2.03;;
31482;SDS011;18103;52.246;8.052;2023-04-25T00:52:15;1.70;;;1.27;;
31482;SDS011;18103;52.246;8.052;2023-04-25T00:54:40;8.43;;;2.50;;
31482;SDS011;18103;52.246;8.052;2023-04-25T00:57:08;6.03;;;1.90;;
31482;SDS011;18103;52.246;8.052;2023-04-25T00:59:34;9.43;;;1.73;;
31482;SDS011;18103;52.246;8.052;2023-04-25T01:02:01;18.17;;;2.03;;
31482;SDS011;18103;52.246;8.052;2023-04-25T01:04:29;7.17;;;1.83;;
31482;SDS011;18103;52.246;8.052;2023-04-25T01:07:00;9.77;;;2.13;;
31482;SDS011;18103;52.246;8.052;2023-04-25T01:09:27;8.63;;;2.30;;
31482;SDS011;18103;52.246;8.052;2023-04-25T01:11:55;6.60;;;2.10;;
31482;SDS011;18103;52.246;8.052;2023-04-25T01:14:22;6.27;;;1.87;;
31482;SDS011;18103;52.246;8.052;2023-04-25T01:16:50;6.67;;;2.13;;
31482;SDS011;18103;52.246;8.052;2023-04-25T01:19:16;7.87;;;2.20;;
31482;SDS011;18103;52.246;8.052;2023-04-25T01:21:43;9.67;;;1.90;;
31482;SDS011;18103;52.246;8.052;2023-04-25T01:24:12;9.43;;;2.37;;
31482;SDS011;18103;52.246;8.052;2023-04-25T01:26:38;11.23;;;2.17;;
31482;SDS011;18103;52.246;8.052;2023-04-25T01:29:09;15.87;;;3.17;;
31482;SDS011;18103;52.246;8.052;2023-04-25T01:31:37;7.20;;;2.20;;
31482;SDS011;18103;52.246;8.052;2023-04-25T01:34:05;17.30;;;2.07;;
31482;SDS011;18103;52.246;8.052;2023-04-25T01:36:31;13.57;;;3.07;;
31482;SDS011;18103;52.246;8.052;2023-04-25T01:38:56;10.33;;;2.10;;
31482;SDS011;18103;52.246;8.052;2023-04-25T01:41:24;10.93;;;2.80;;
31482;SDS011;18103;52.246;8.052;2023-04-25T01:43:52;20.50;;;3.03;;
31482;SDS011;18103;52.246;8.052;2023-04-25T01:46:17;9.33;;;2.13;;
31482;SDS011;18103;52.246;8.052;2023-04-25T01:48:47;17.90;;;2.93;;
31482;SDS011;18103;52.246;8.052;2023-04-25T01:51:13;13.40;;;3.00;;
31482;SDS011;18103;52.246;8.052;2023-04-25T01:53:42;12.20;;;2.93;;
31482;SDS011;18103;52.246;8.052;2023-04-25T01:56:13;8.17;;;2.33;;
31482;SDS011;18103;52.246;8.052;2023-04-25T01:58:38;15.03;;;2.93;;
31482;SDS011;18103;52.246;8.052;2023-04-25T02:01:06;11.90;;;2.63;;
31482;SDS011;18103;52.246;8.052;2023-04-25T02:03:32;9.17;;;2.30;;
31482;SDS011;18103;52.246;8.052;2023-04-25T02:05:59;14.33;;;2.83;;
31482;SDS011;18103;52.246;8.052;2023-04-25T02:08:27;10.83;;;2.87;;
31482;SDS011;18103;52.246;8.052;2023-04-25T02:10:52;9.47;;;2.63;;
31482;SDS011;18103;52.246;8.052;2023-04-25T02:13:17;11.33;;;2.17;;
31482;SDS011;18103;52.246;8.052;2023-04-25T02:15:43;16.27;;;3.30;;
31482;SDS011;18103;52.246;8.052;2023-04-25T02:18:08;12.17;;;2.17;;
31482;SDS011;18103;52.246;8.052;2023-04-25T02:20:35;10.97;;;2.07;;
31482;SDS011;18103;52.246;8.052;2023-04-25T02:23:03;13.90;;;2.47;;
31482;SDS011;18103;52.246;8.052;2023-04-25T02:25:29;12.67;;;2.50;;
31482;SDS011;18103;52.246;8.052;2023-04-25T02:27:54;6.10;;;2.17;;
31482;SDS011;18103;52.246;8.052;2023-04-25T02:30:22;13.57;;;2.73;;
31482;SDS011;18103;52.246;8.052;2023-04-25T02:32:48;7.60;;;2.10;;
31482;SDS011;18103;52.246;8.052;2023-04-25T02:35:13;14.70;;;2.43;;
31482;SDS011;18103;52.246;8.052;2023-04-25T02:37:39;9.93;;;3.67;;
31482;SDS011;18103;52.246;8.052;2023-04-25T02:40:05;12.67;;;2.27;;
31482;SDS011;18103;52.246;8.052;2023-04-25T02:42:32;8.77;;;1.93;;
31482;SDS011;18103;52.246;8.052;2023-04-25T02:44:57;8.40;;;1.73;;
31482;SDS011;18103;52.246;8.052;2023-04-25T02:47:25;8.90;;;2.40;;
31482;SDS011;18103;52.246;8.052;2023-04-25T02:49:51;6.13;;;1.57;;
31482;SDS011;18103;52.246;8.052;2023-04-25T02:52:16;13.80;;;2.47;;
31482;SDS011;18103;52.246;8.052;2023-04-25T02:54:42;9.10;;;1.90;;
31482;SDS011;18103;52.246;8.052;2023-04-25T02:57:07;12.70;;;2.73;;
31482;SDS011;18103;52.246;8.052;2023-04-25T02:59:33;12.10;;;2.67;;
31482;SDS011;18103;52.246;8.052;2023-04-25T03:01:58;8.07;;;2.10;;
31482;SDS011;18103;52.246;8.052;2023-04-25T03:04:26;7.47;;;2.20;;
31482;SDS011;18103;52.246;8.052;2023-04-25T03:06:52;17.20;;;6.17;;
31482;SDS011;18103;52.246;8.052;2023-04-25T03:09:20;16.37;;;2.30;;
31482;SDS011;18103;52.246;8.052;2023-04-25T03:11:47;11.40;;;2.27;;
31482;SDS011;18103;52.246;8.052;2023-04-25T03:14:13;18.97;;;3.00;;
31482;SDS011;18103;52.246;8.052;2023-04-25T03:16:38;12.40;;;3.60;;
31482;SDS011;18103;52.246;8.052;2023-04-25T03:19:04;8.13;;;2.90;;
31482;SDS011;18103;52.246;8.052;2023-04-25T03:21:32;15.60;;;2.63;;
31482;SDS011;18103;52.246;8.052;2023-04-25T03:23:59;10.93;;;3.13;;
31482;SDS011;18103;52.246;8.052;2023-04-25T03:26:25;6.33;;;2.10;;
31482;SDS011;18103;52.246;8.052;2023-04-25T03:28:50;9.90;;;2.37;;
31482;SDS011;18103;52.246;8.052;2023-04-25T03:31:16;15.33;;;2.50;;
31482;SDS011;18103;52.246;8.052;2023-04-25T03:33:44;5.43;;;2.23;;
31482;SDS011;18103;52.246;8.052;2023-04-25T03:36:10;25.00;;;3.07;;
31482;SDS011;18103;52.246;8.052;2023-04-25T03:38:37;13.83;;;3.43;;
31482;SDS011;18103;52.246;8.052;2023-04-25T03:41:03;13.47;;;2.63;;
31482;SDS011;18103;52.246;8.052;2023-04-25T03:43:28;18.30;;;2.27;;
31482;SDS011;18103;52.246;8.052;2023-04-25T03:45:54;8.17;;;2.30;;
31482;SDS011;18103;52.246;8.052;2023-04-25T03:48:21;12.40;;;2.80;;
31482;SDS011;18103;52.246;8.052;2023-04-25T03:50:49;15.93;;;2.40;;
31482;SDS011;18103;52.246;8.052;2023-04-25T03:53:19;29.93;;;2.57;;
31482;SDS011;18103;52.246;8.052;2023-04-25T03:55:45;13.33;;;2.00;;
31482;SDS011;18103;52.246;8.052;2023-04-25T03:58:10;17.07;;;2.73;;
31482;SDS011;18103;52.246;8.052;2023-04-25T04:00:36;8.00;;;2.23;;
31482;SDS011;18103;52.246;8.052;2023-04-25T04:03:04;10.93;;;1.87;;
31482;SDS011;18103;52.246;8.052;2023-04-25T04:05:29;23.50;;;3.07;;
31482;SDS011;18103;52.246;8.052;2023-04-25T04:07:54;8.57;;;2.53;;
31482;SDS011;18103;52.246;8.052;2023-04-25T04:10:22;7.00;;;2.40;;
31482;SDS011;18103;52.246;8.052;2023-04-25T04:12:47;32.17;;;3.20;;
31482;SDS011;18103;52.246;8.052;2023-04-25T04:15:13;7.00;;;2.20;;
31482;SDS011;18103;52.246;8.052;2023-04-25T04:17:38;7.73;;;2.20;;
31482;SDS011;18103;52.246;8.052;2023-04-25T04:20:06;11.47;;;3.30;;
31482;SDS011;18103;52.246;8.052;2023-04-25T04:22:33;9.50;;;2.27;;
31482;SDS011;18103;52.246;8.052;2023-04-25T04:24:58;7.67;;;2.33;;
31482;SDS011;18103;52.246;8.052;2023-04-25T04:27:24;9.10;;;2.70;;
31482;SDS011;18103;52.246;8.052;2023-04-25T04:29:49;12.63;;;2.33;;
31482;SDS011;18103;52.246;8.052;2023-04-25T04:32:16;16.53;;;2.67;;
31482;SDS011;18103;52.246;8.052;2023-04-25T04:34:44;11.37;;;2.67;;
31482;SDS011;18103;52.246;8.052;2023-04-25T04:37:12;8.63;;;2.37;;
31482;SDS011;18103;52.246;8.052;2023-04-25T04:39:38;9.17;;;2.40;;
31482;SDS011;18103;52.246;8.052;2023-04-25T04:42:05;10.17;;;2.10;;
31482;SDS011;18103;52.246;8.052;2023-04-25T04:44:31;16.13;;;3.23;;
31482;SDS011;18103;52.246;8.052;2023-04-25T04:47:00;11.17;;;2.13;;
31482;SDS011;18103;52.246;8.052;2023-04-25T04:49:26;6.77;;;1.90;;
31482;SDS011;18103;52.246;8.052;2023-04-25T04:51:52;14.63;;;2.57;;
31482;SDS011;18103;52.246;8.052;2023-04-25T04:54:19;5.53;;;2.10;;
31482;SDS011;18103;52.246;8.052;2023-04-25T04:56:45;8.83;;;2.77;;
31482;SDS011;18103;52.246;8.052;2023-04-25T04:59:15;15.17;;;2.83;;
31482;SDS011;18103;52.246;8.052;2023-04-25T05:01:40;13.33;;;2.97;;
31482;SDS011;18103;52.246;8.052;2023-04-25T05:04:08;8.03;;;2.20;;
31482;SDS011;18103;52.246;8.052;2023-04-25T05:06:36;19.00;;;2.57;;
31482;SDS011;18103;52.246;8.052;2023-04-25T05:09:01;5.60;;;2.23;;
31482;SDS011;18103;52.246;8.052;2023-04-25T05:11:27;8.50;;;2.67;;
31482;SDS011;18103;52.246;8.052;2023-04-25T05:13:53;9.57;;;2.37;;
31482;SDS011;18103;52.246;8.052;2023-04-25T05:16:19;19.57;;;2.70;;
31482;SDS011;18103;52.246;8.052;2023-04-25T05:18:45;15.73;;;2.50;;
31482;SDS011;18103;52.246;8.052;2023-04-25T05:21:11;12.07;;;2.03;;
31482;SDS011;18103;52.246;8.052;2023-04-25T05:23:36;12.80;;;2.33;;
31482;SDS011;18103;52.246;8.052;2023-04-25T05:26:02;11.83;;;3.13;;
31482;SDS011;18103;52.246;8.052;2023-04-25T05:28:30;6.93;;;2.10;;
31482;SDS011;18103;52.246;8.052;2023-04-25T05:30:56;12.73;;;2.70;;
31482;SDS011;18103;52.246;8.052;2023-04-25T05:33:21;10.70;;;2.03;;
31482;SDS011;18103;52.246;8.052;2023-04-25T05:35:50;6.13;;;1.73;;
31482;SDS011;18103;52.246;8.052;2023-04-25T05:38:15;15.53;;;2.73;;
31482;SDS011;18103;52.246;8.052;2023-04-25T05:40:43;9.47;;;3.13;;
31482;SDS011;18103;52.246;8.052;2023-04-25T05:43:09;10.27;;;2.87;;
31482;SDS011;18103;52.246;8.052;2023-04-25T05:45:37;5.27;;;2.37;;
31482;SDS011;18103;52.246;8.052;2023-04-25T05:48:02;11.23;;;2.70;;
31482;SDS011;18103;52.246;8.052;2023-04-25T05:50:33;7.47;;;2.00;;
31482;SDS011;18103;52.246;8.052;2023-04-25T05:53:00;9.80;;;2.93;;
31482;SDS011;18103;52.246;8.052;2023-04-25T05:55:28;15.50;;;2.43;;
31482;SDS011;18103;52.246;8.052;2023-04-25T05:57:56;16.20;;;3.30;;
31482;SDS011;18103;52.246;8.052;2023-04-25T06:00:21;17.60;;;2.70;;
31482;SDS011;18103;52.246;8.052;2023-04-25T06:02:47;19.83;;;3.50;;
31482;SDS011;18103;52.246;8.052;2023-04-25T06:05:15;16.73;;;2.70;;
31482;SDS011;18103;52.246;8.052;2023-04-25T06:07:41;10.60;;;2.13;;
31482;SDS011;18103;52.246;8.052;2023-04-25T06:10:07;12.40;;;2.27;;
31482;SDS011;18103;52.246;8.052;2023-04-25T06:12:33;23.93;;;2.83;;
31482;SDS011;18103;52.246;8.052;2023-04-25T06:15:03;8.83;;;2.60;;
31482;SDS011;18103;52.246;8.052;2023-04-25T06:17:35;6.07;;;2.30;;
31482;SDS011;18103;52.246;8.052;2023-04-25T06:20:02;20.43;;;2.93;;
31482;SDS011;18103;52.246;8.052;2023-04-25T06:22:29;8.90;;;2.37;;
31482;SDS011;18103;52.246;8.052;2023-04-25T06:24:56;12.23;;;2.47;;
31482;SDS011;18103;52.246;8.052;2023-04-25T06:27:23;8.30;;;2.50;;
31482;SDS011;18103;52.246;8.052;2023-04-25T06:29:49;16.57;;;2.43;;
31482;SDS011;18103;52.246;8.052;2023-04-25T06:32:14;13.77;;;2.33;;
31482;SDS011;18103;52.246;8.052;2023-04-25T06:34:43;19.73;;;2.70;;
31482;SDS011;18103;52.246;8.052;2023-04-25T06:37:11;7.93;;;2.10;;
31482;SDS011;18103;52.246;8.052;2023-04-25T06:39:36;12.93;;;2.43;;
31482;SDS011;18103;52.246;8.052;2023-04-25T06:42:02;11.37;;;2.27;;
31482;SDS011;18103;52.246;8.052;2023-04-25T06:44:29;9.97;;;2.17;;
31482;SDS011;18103;52.246;8.052;2023-04-25T06:46:55;10.33;;;2.03;;
31482;SDS011;18103;52.246;8.052;2023-04-25T06:49:21;16.57;;;2.70;;
31482;SDS011;18103;52.246;8.052;2023-04-25T06:51:48;13.23;;;2.77;;
31482;SDS011;18103;52.246;8.052;2023-04-25T06:54:16;13.83;;;2.70;;
31482;SDS011;18103;52.246;8.052;2023-04-25T06:56:42;19.83;;;2.90;;
31482;SDS011;18103;52.246;8.052;2023-04-25T06:59:10;10.90;;;2.13;;
31482;SDS011;18103;52.246;8.052;2023-04-25T07:01:35;8.30;;;1.73;;
31482;SDS011;18103;52.246;8.052;2023-04-25T07:04:00;9.73;;;2.60;;
31482;SDS011;18103;52.246;8.052;2023-04-25T07:06:28;6.83;;;1.43;;
31482;SDS011;18103;52.246;8.052;2023-04-25T07:08:53;4.83;;;2.03;;
31482;SDS011;18103;52.246;8.052;2023-04-25T07:11:20;15.60;;;2.27;;
31482;SDS011;18103;52.246;8.052;2023-04-25T07:13:46;8.63;;;2.13;;
31482;SDS011;18103;52.246;8.052;2023-04-25T07:16:11;10.63;;;2.33;;
31482;SDS011;18103;52.246;8.052;2023-04-25T07:18:36;6.80;;;1.97;;
31482;SDS011;18103;52.246;8.052;2023-04-25T07:21:02;17.17;;;1.90;;
31482;SDS011;18103;52.246;8.052;2023-04-25T07:23:27;6.43;;;2.00;;
31482;SDS011;18103;52.246;8.052;2023-04-25T07:25:53;9.70;;;1.23;;
31482;SDS011;18103;52.246;8.052;2023-04-25T07:28:18;8.23;;;2.07;;
31482;SDS011;18103;52.246;8.052;2023-04-25T07:30:43;9.03;;;2.17;;
31482;SDS011;18103;52.246;8.052;2023-04-25T07:33:09;11.97;;;2.70;;
31482;SDS011;18103;52.246;8.052;2023-04-25T07:35:37;9.27;;;1.90;;
31482;SDS011;18103;52.246;8.052;2023-04-25T07:38:02;9.33;;;1.67;;
31482;SDS011;18103;52.246;8.052;2023-04-25T07:40:30;9.40;;;1.60;;
31482;SDS011;18103;52.246;8.052;2023-04-25T07:42:56;10.50;;;1.83;;
31482;SDS011;18103;52.246;8.052;2023-04-25T07:45:21;9.70;;;1.67;;
31482;SDS011;18103;52.246;8.052;2023-04-25T07:47:46;8.60;;;1.23;;
31482;SDS011;18103;52.246;8.052;2023-04-25T07:50:15;7.67;;;1.20;;
31482;SDS011;18103;52.246;8.052;2023-04-25T07:52:40;4.27;;;1.53;;
31482;SDS011;18103;52.246;8.052;2023-04-25T07:55:08;6.37;;;1.40;;
31482;SDS011;18103;52.246;8.052;2023-04-25T07:57:34;10.57;;;1.60;;
31482;SDS011;18103;52.246;8.052;2023-04-25T08:00:03;9.50;;;1.57;;
31482;SDS011;18103;52.246;8.052;2023-04-25T08:02:37;10.67;;;1.87;;
31482;SDS011;18103;52.246;8.052;2023-04-25T08:05:04;8.37;;;2.03;;
31482;SDS011;18103;52.246;8.052;2023-04-25T08:07:33;6.67;;;1.30;;
31482;SDS011;18103;52.246;8.052;2023-04-25T08:09:59;13.00;;;1.90;;
31482;SDS011;18103;52.246;8.052;2023-04-25T08:12:28;4.83;;;1.00;;
31482;SDS011;18103;52.246;8.052;2023-04-25T08:14:54;3.87;;;1.27;;
31482;SDS011;18103;52.246;8.052;2023-04-25T08:17:19;3.43;;;1.53;;
31482;SDS011;18103;52.246;8.052;2023-04-25T08:19:47;4.87;;;1.40;;
31482;SDS011;18103;52.246;8.052;2023-04-25T08:22:14;5.47;;;1.03;;
31482;SDS011;18103;52.246;8.052;2023-04-25T08:24:40;6.50;;;1.10;;
31482;SDS011;18103;52.246;8.052;2023-04-25T08:27:06;7.67;;;1.20;;
31482;SDS011;18103;52.246;8.052;2023-04-25T08:29:32;10.87;;;1.33;;
31482;SDS011;18103;52.246;8.052;2023-04-25T08:31:58;4.07;;;1.30;;
31482;SDS011;18103;52.246;8.052;2023-04-25T08:34:26;11.63;;;1.80;;
31482;SDS011;18103;52.246;8.052;2023-04-25T08:36:51;9.23;;;1.33;;
31482;SDS011;18103;52.246;8.052;2023-04-25T08:39:17;11.57;;;1.47;;
31482;SDS011;18103;52.246;8.052;2023-04-25T08:41:45;12.73;;;1.33;;
31482;SDS011;18103;52.246;8.052;2023-04-25T08:44:11;5.47;;;1.10;;
31482;SDS011;18103;52.246;8.052;2023-04-25T08:46:40;5.40;;;1.27;;
31482;SDS011;18103;52.246;8.052;2023-04-25T08:49:06;5.37;;;1.67;;
31482;SDS011;18103;52.246;8.052;2023-04-25T08:51:32;9.73;;;1.30;;
31482;SDS011;18103;52.246;8.052;2023-04-25T08:54:08;5.90;;;1.53;;
31482;SDS011;18103;52.246;8.052;2023-04-25T08:56:41;8.47;;;1.27;;
31482;SDS011;18103;52.246;8.052;2023-04-25T08:59:10;11.00;;;1.00;;
31482;SDS011;18103;52.246;8.052;2023-04-25T09:01:36;6.90;;;1.27;;
31482;SDS011;18103;52.246;8.052;2023-04-25T09:04:02;9.63;;;1.47;;
31482;SDS011;18103;52.246;8.052;2023-04-25T09:06:30;9.57;;;1.70;;
31482;SDS011;18103;52.246;8.052;2023-04-25T09:09:03;6.20;;;1.30;;
31482;SDS011;18103;52.246;8.052;2023-04-25T09:11:32;5.17;;;0.87;;
31482;SDS011;18103;52.246;8.052;2023-04-25T09:16:40;12.27;;;1.40;;
31482;SDS011;18103;52.246;8.052;2023-04-25T09:19:22;7.60;;;0.90;;
31482;SDS011;18103;52.246;8.052;2023-04-25T09:21:51;3.50;;;0.97;;
31482;SDS011;18103;52.246;8.052;2023-04-25T09:27:12;8.60;;;1.20;;
31482;SDS011;18103;52.246;8.052;2023-04-25T09:29:44;10.57;;;1.17;;
31482;SDS011;18103;52.246;8.052;2023-04-25T09:34:45;6.50;;;1.57;;
31482;SDS011;18103;52.246;8.052;2023-04-25T09:39:46;3.17;;;0.90;;
31482;SDS011;18103;52.246;8.052;2023-04-25T09:42:16;2.67;;;0.73;;
31482;SDS011;18103;52.246;8.052;2023-04-25T09:44:45;3.50;;;0.90;;
31482;SDS011;18103;52.246;8.052;2023-04-25T09:47:16;11.67;;;1.30;;
31482;SDS011;18103;52.246;8.052;2023-04-25T09:49:42;3.93;;;0.90;;
31482;SDS011;18103;52.246;8.052;2023-04-25T09:52:15;2.63;;;0.70;;
31482;SDS011;18103;52.246;8.052;2023-04-25T09:54:46;6.00;;;0.87;;
31482;SDS011;18103;52.246;8.052;2023-04-25T09:57:22;8.93;;;1.20;;
31482;SDS011;18103;52.246;8.052;2023-04-25T09:59:49;6.50;;;1.07;;
31482;SDS011;18103;52.246;8.052;2023-04-25T10:02:17;1.30;;;0.70;;
31482;SDS011;18103;52.246;8.052;2023-04-25T10:04:46;3.17;;;0.90;;
31482;SDS011;18103;52.246;8.052;2023-04-25T10:07:17;12.03;;;1.23;;
31482;SDS011;18103;52.246;8.052;2023-04-25T10:09:47;9.47;;;1.00;;
31482;SDS011;18103;52.246;8.052;2023-04-25T10:12:15;5.80;;;1.13;;
31482;SDS011;18103;52.246;8.052;2023-04-25T10:14:41;5.00;;;1.00;;
31482;SDS011;18103;52.246;8.052;2023-04-25T10:17:08;9.57;;;1.63;;
31482;SDS011;18103;52.246;8.052;2023-04-25T10:19:35;3.50;;;0.97;;
31482;SDS011;18103;52.246;8.052;2023-04-25T10:22:06;10.90;;;1.27;;
31482;SDS011;18103;52.246;8.052;2023-04-25T10:24:36;5.27;;;1.50;;
31482;SDS011;18103;52.246;8.052;2023-04-25T10:27:05;3.67;;;0.90;;
31482;SDS011;18103;52.246;8.052;2023-04-25T10:29:31;8.97;;;1.17;;
31482;SDS011;18103;52.246;8.052;2023-04-25T10:32:00;9.30;;;1.20;;
31482;SDS011;18103;52.246;8.052;2023-04-25T10:34:42;3.30;;;1.30;;
31482;SDS011;18103;52.246;8.052;2023-04-25T10:37:11;5.40;;;1.27;;
31482;SDS011;18103;52.246;8.052;2023-04-25T10:39:40;4.23;;;1.40;;
31482;SDS011;18103;52.246;8.052;2023-04-25T10:42:09;6.00;;;1.40;;
31482;SDS011;18103;52.246;8.052;2023-04-25T10:44:37;4.47;;;1.07;;
31482;SDS011;18103;52.246;8.052;2023-04-25T10:47:05;3.20;;;1.20;;
31482;SDS011;18103;52.246;8.052;2023-04-25T11:02:30;5.67;;;1.20;;
31482;SDS011;18103;52.246;8.052;2023-04-25T11:04:56;9.73;;;1.17;;
31482;SDS011;18103;52.246;8.052;2023-04-25T11:07:34;2.27;;;1.03;;
31482;SDS011;18103;52.246;8.052;2023-04-25T11:10:04;8.37;;;1.47;;
31482;SDS011;18103;52.246;8.052;2023-04-25T11:12:33;4.27;;;1.10;;
31482;SDS011;18103;52.246;8.052;2023-04-25T11:14:59;3.57;;;1.03;;
31482;SDS011;18103;52.246;8.052;2023-04-25T11:17:28;8.27;;;1.23;;
31482;SDS011;18103;52.246;8.052;2023-04-25T11:19:54;2.53;;;0.70;;
31482;SDS011;18103;52.246;8.052;2023-04-25T11:22:21;5.40;;;1.30;;
31482;SDS011;18103;52.246;8.052;2023-04-25T11:24:47;12.50;;;1.37;;
31482;SDS011;18103;52.246;8.052;2023-04-25T11:27:12;7.13;;;1.17;;
31482;SDS011;18103;52.246;8.052;2023-04-25T11:29:40;3.67;;;1.50;;
31482;SDS011;18103;52.246;8.052;2023-04-25T11:32:08;5.37;;;1.20;;
31482;SDS011;18103;52.246;8.052;2023-04-25T11:34:36;8.97;;;1.13;;
31482;SDS011;18103;52.246;8.052;2023-04-25T11:37:03;4.87;;;0.80;;
31482;SDS011;18103;52.246;8.052;2023-04-25T11:39:31;6.40;;;1.50;;
31482;SDS011;18103;52.246;8.052;2023-04-25T11:41:57;4.27;;;1.20;;
31482;SDS011;18103;52.246;8.052;2023-04-25T11:44:25;7.03;;;1.53;;
31482;SDS011;18103;52.246;8.052;2023-04-25T11:46:50;1.13;;;0.87;;
31482;SDS011;18103;52.246;8.052;2023-04-25T11:49:16;6.10;;;1.30;;
31482;SDS011;18103;52.246;8.052;2023-04-25T11:51:44;2.17;;;0.80;;
31482;SDS011;18103;52.246;8.052;2023-04-25T11:54:12;5.00;;;1.30;;
31482;SDS011;18103;52.246;8.052;2023-04-25T11:56:41;4.23;;;0.97;;
31482;SDS011;18103;52.246;8.052;2023-04-25T11:59:10;1.57;;;1.13;;
31482;SDS011;18103;52.246;8.052;2023-04-25T12:01:37;2.13;;;0.70;;
31482;SDS011;18103;52.246;8.052;2023-04-25T12:04:17;2.03;;;0.90;;
31482;SDS011;18103;52.246;8.052;2023-04-25T12:06:44;3.47;;;0.77;;
31482;SDS011;18103;52.246;8.052;2023-04-25T12:09:16;3.63;;;0.87;;
31482;SDS011;18103;52.246;8.052;2023-04-25T12:11:52;5.93;;;1.20;;
31482;SDS011;18103;52.246;8.052;2023-04-25T12:14:22;5.90;;;1.40;;
31482;SDS011;18103;52.246;8.052;2023-04-25T12:16:56;2.97;;;1.30;;
31482;SDS011;18103;52.246;8.052;2023-04-25T12:19:23;4.03;;;0.80;;
31482;SDS011;18103;52.246;8.052;2023-04-25T12:21:49;6.57;;;0.70;;
31482;SDS011;18103;52.246;8.052;2023-04-25T12:24:16;2.57;;;0.80;;
31482;SDS011;18103;52.246;8.052;2023-04-25T12:27:01;2.93;;;0.70;;
31482;SDS011;18103;52.246;8.052;2023-04-25T12:29:28;4.43;;;0.80;;
31482;SDS011;18103;52.246;8.052;2023-04-25T12:31:55;2.50;;;0.77;;
31482;SDS011;18103;52.246;8.052;2023-04-25T12:34:23;3.00;;;1.07;;
31482;SDS011;18103;52.246;8.052;2023-04-25T12:36:52;2.13;;;0.70;;
31482;SDS011;18103;52.246;8.052;2023-04-25T12:39:21;4.10;;;0.57;;
31482;SDS011;18103;52.246;8.052;2023-04-25T12:41:48;6.17;;;1.10;;
31482;SDS011;18103;52.246;8.052;2023-04-25T12:44:17;0.70;;;0.60;;
31482;SDS011;18103;52.246;8.052;2023-04-25T12:46:42;2.23;;;0.70;;
31482;SDS011;18103;52.246;8.052;2023-04-25T12:49:08;4.00;;;0.90;;
31482;SDS011;18103;52.246;8.052;2023-04-25T12:51:36;1.20;;;0.90;;
31482;SDS011;18103;52.246;8.052;2023-04-25T12:54:03;1.93;;;0.73;;
31482;SDS011;18103;52.246;8.052;2023-04-25T12:56:29;4.43;;;1.00;;
31482;SDS011;18103;52.246;8.052;2023-04-25T12:58:55;3.87;;;0.67;;
31482;SDS011;18103;52.246;8.052;2023-04-25T13:01:23;2.50;;;0.70;;
31482;SDS011;18103;52.246;8.052;2023-04-25T13:03:49;0.60;;;0.53;;
31482;SDS011;18103;52.246;8.052;2023-04-25T13:06:20;4.77;;;1.10;;
31482;SDS011;18103;52.246;8.052;2023-04-25T13:08:46;6.43;;;0.90;;
31482;SDS011;18103;52.246;8.052;2023-04-25T13:11:14;7.47;;;1.40;;
31482;SDS011;18103;52.246;8.052;2023-04-25T13:13:40;4.77;;;0.97;;
31482;SDS011;18103;52.246;8.052;2023-04-25T13:16:06;2.87;;;0.57;;
31482;SDS011;18103;52.246;8.052;2023-04-25T13:18:35;5.37;;;1.10;;
31482;SDS011;18103;52.246;8.052;2023-04-25T13:21:03;2.50;;;0.73;;
31482;SDS011;18103;52.246;8.052;2023-04-25T13:23:31;2.13;;;0.80;;
31482;SDS011;18103;52.246;8.052;2023-04-25T13:25:56;12.20;;;1.27;;
31482;SDS011;18103;52.246;8.052;2023-04-25T13:28:23;3.70;;;1.03;;
31482;SDS011;18103;52.246;8.052;2023-04-25T13:30:53;3.90;;;0.80;;
31482;SDS011;18103;52.246;8.052;2023-04-25T13:33:19;2.53;;;0.90;;
31482;SDS011;18103;52.246;8.052;2023-04-25T13:35:48;7.73;;;1.33;;
31482;SDS011;18103;52.246;8.052;2023-04-25T13:38:23;0.83;;;0.50;;
31482;SDS011;18103;52.246;8.052;2023-04-25T13:40:50;5.50;;;1.07;;
31482;SDS011;18103;52.246;8.052;2023-04-25T13:43:21;2.27;;;0.97;;
31482;SDS011;18103;52.246;8.052;2023-04-25T13:45:48;0.60;;;0.50;;
31482;SDS011;18103;52.246;8.052;2023-04-25T13:48:16;5.20;;;1.23;;
31482;SDS011;18103;52.246;8.052;2023-04-25T13:50:41;5.73;;;0.77;;
31482;SDS011;18103;52.246;8.052;2023-04-25T13:53:09;3.10;;;0.83;;
31482;SDS011;18103;52.246;8.052;2023-04-25T13:55:34;6.60;;;1.10;;
31482;SDS011;18103;52.246;8.052;2023-04-25T13:58:01;3.43;;;1.10;;
31482;SDS011;18103;52.246;8.052;2023-04-25T14:00:32;4.20;;;0.60;;
31482;SDS011;18103;52.246;8.052;2023-04-25T14:02:58;4.67;;;1.00;;
31482;SDS011;18103;52.246;8.052;2023-04-25T14:05:29;5.07;;;1.23;;
31482;SDS011;18103;52.246;8.052;2023-04-25T14:07:59;2.53;;;1.43;;
31482;SDS011;18103;52.246;8.052;2023-04-25T14:10:25;1.47;;;0.60;;
31482;SDS011;18103;52.246;8.052;2023-04-25T14:12:50;2.23;;;0.70;;
31482;SDS011;18103;52.246;8.052;2023-04-25T14:15:18;3.20;;;0.60;;
31482;SDS011;18103;52.246;8.052;2023-04-25T14:17:43;0.47;;;0.40;;
31482;SDS011;18103;52.246;8.052;2023-04-25T14:20:13;0.60;;;0.50;;
31482;SDS011;18103;52.246;8.052;2023-04-25T14:22:38;3.17;;;0.80;;
31482;SDS011;18103;52.246;8.052;2023-04-25T14:25:07;1.70;;;0.70;;
31482;SDS011;18103;52.246;8.052;2023-04-25T14:27:34;3.17;;;0.77;;
31482;SDS011;18103;52.246;8.052;2023-04-25T14:29:59;4.50;;;0.70;;
31482;SDS011;18103;52.246;8.052;2023-04-25T14:32:24;4.70;;;0.53;;
31482;SDS011;18103;52.246;8.052;2023-04-25T14:34:50;1.30;;;0.77;;
31482;SDS011;18103;52.246;8.052;2023-04-25T14:37:15;3.33;;;0.70;;
31482;SDS011;18103;52.246;8.052;2023-04-25T14:39:41;3.03;;;0.77;;
31482;SDS011;18103;52.246;8.052;2023-04-25T14:42:06;7.40;;;0.80;;
31482;SDS011;18103;52.246;8.052;2023-04-25T14:44:32;9.53;;;0.77;;
31482;SDS011;18103;52.246;8.052;2023-04-25T14:46:57;1.83;;;0.80;;
31482;SDS011;18103;52.246;8.052;2023-04-25T14:49:25;3.27;;;0.73;;
31482;SDS011;18103;52.246;8.052;2023-04-25T14:51:53;4.30;;;0.80;;
31482;SDS011;18103;52.246;8.052;2023-04-25T14:54:21;3.53;;;1.03;;
31482;SDS011;18103;52.246;8.052;2023-04-25T14:56:46;5.93;;;0.87;;
31482;SDS011;18103;52.246;8.052;2023-04-25T14:59:11;5.57;;;1.20;;
31482;SDS011;18103;52.246;8.052;2023-04-25T15:01:37;3.87;;;1.10;;
31482;SDS011;18103;52.246;8.052;2023-04-25T15:04:02;10.93;;;0.90;;
31482;SDS011;18103;52.246;8.052;2023-04-25T15:06:28;0.97;;;0.73;;